Mud Butte, SD (57758)

3:47 AM MST on February 24, 2017 (GMT -0700)
Goddard Ranch | | Change Station

Elev 2808 ft 45.33 °N, 102.88 °W | Updated 7 seconds ago

Overcast
Overcast
15.8 °F
Feels Like 1 °F
N
14.5
Wind Variable Wind from NE
Gusts 17.5 mph

Today
High -- | Low -- °F
--% Chance of Precip.
Yesterday
High -- | Low -- °F
Precip. -- in
Pressure 29.98 in
Visibility 1.8 miles
Clouds Overcast 200 ft
Windchill 1 °F
Dew Point 10 °F
Humidity 78%
Rainfall 0.00 in
Snow Depth Not available.
6:37 AM 5:32 PM
Waning Crescent, 5% visible
METAR KSPF 241035Z AUTO 08008KT 1 3/4SM BR OVC002 M07/M07 A2998 RMK AO2
Pressure 29.98 in
Visibility 1.8 miles
Clouds Overcast 200 ft
Windchill 1 °F
Dew Point 10 °F
Humidity 78%
Rainfall 0.00 in
Snow Depth Not available.
6:37 AM 5:32 PM
Waning Crescent, 5% visible
METAR KSPF 241035Z AUTO 08008KT 1 3/4SM BR OVC002 M07/M07 A2998 RMK AO2

Get Your Daily Forecast Email!

Thanks for signing up!

Be on the lookout for a verification email in your inbox.

You'll start receiving the daily forecast at 8 AM.

×

10-Day Weather Forecast

Almanac

Astronomy

Feb. 24, 2017 Rise Set
Actual Time
Civil Twilight
Nautical Twilight
Astronomical Twilight
Moon
Length of Visible Light
Length of Day
Tomorrow will be .
, % of the Moon is Illuminated

Today's Extremes

State Highs State Lows

Community

WunderPhotos

Upload Photos

1,962,540 photos uploaded!

WunderBlog® & News

Nearby

Air Quality

  Air Quality AQ Index Pollutant
Not available.

Snow Depth

Station Depth Elevation

Earthquake Activity

City Distance Mag. Time & Date
Minimum magnitude displayed is 2.5.

Coastal Water Temperatures

Place Temperature

Stations

Nearby Weather Stations

Station Location Temp. Windchill Dew Point Humidity Wind Precip. Elev Updated Type
                   

Watches & Warnings

There are currently no watches in effect.